createdAt,value
2023-04-01T00:08:06.655Z,80.63
2023-04-01T00:18:14.897Z,80.82
2023-04-01T00:28:23.016Z,80.78
2023-04-01T00:38:30.062Z,80.88
2023-04-01T00:48:41.070Z,80.84
2023-04-01T00:58:53.382Z,80.75
2023-04-01T01:09:22.257Z,80.95
2023-04-01T01:19:41.115Z,80.84
2023-04-01T01:30:26.053Z,81.03
2023-04-01T01:40:36.736Z,81.16
2023-04-01T01:50:44.005Z,81.21
2023-04-01T02:00:48.821Z,81.11
2023-04-01T02:10:54.205Z,81.28
2023-04-01T02:21:01.485Z,81.01
2023-04-01T02:31:10.613Z,81.02
2023-04-01T02:41:17.806Z,81.18
2023-04-01T02:51:25.496Z,80.99
2023-04-01T03:01:31.758Z,81.16
2023-04-01T03:11:39.010Z,81.32
2023-04-01T03:21:46.259Z,81.42
2023-04-01T03:31:53.207Z,81.43
2023-04-01T03:42:01.234Z,81.47
2023-04-01T03:52:10.314Z,81.54
2023-04-01T04:02:17.373Z,81.50
2023-04-01T04:12:24.633Z,81.63
2023-04-01T04:22:31.701Z,81.82
2023-04-01T04:32:38.509Z,81.87
2023-04-01T04:42:45.774Z,81.90
2023-04-01T04:52:52.791Z,82.11
2023-04-01T05:02:59.865Z,82.15
2023-04-01T05:13:07.077Z,82.16
2023-04-01T05:23:14.232Z,82.37
2023-04-01T05:33:21.220Z,82.69
2023-04-01T05:43:29.107Z,82.34
2023-04-01T05:53:36.239Z,82.31
2023-04-01T06:03:43.717Z,82.25
2023-04-01T06:14:09.400Z,82.29
2023-04-01T06:24:30.537Z,82.54
2023-04-01T06:34:46.023Z,82.87
2023-04-01T06:44:56.247Z,83.09
2023-04-01T06:55:02.388Z,83.11
2023-04-01T07:05:13.370Z,83.21
2023-04-01T07:15:19.601Z,83.27
2023-04-01T07:25:31.687Z,83.15
2023-04-01T07:35:41.261Z,83.15
2023-04-01T07:45:53.960Z,83.27
2023-04-01T07:56:05.519Z,83.82
2023-04-01T08:06:09.750Z,83.98
2023-04-01T08:16:20.516Z,83.85
2023-04-01T08:26:28.430Z,83.79
2023-04-01T08:36:37.045Z,83.49
2023-04-01T08:47:23.984Z,83.22
2023-04-01T08:57:33.486Z,82.99
2023-04-01T09:07:40.235Z,82.60
2023-04-01T09:17:58.719Z,82.67
2023-04-01T09:28:05.222Z,82.23
2023-04-01T09:38:16.380Z,82.27
2023-04-01T09:48:26.215Z,82.39
2023-04-01T09:58:59.269Z,82.55
2023-04-01T10:09:43.862Z,83.03
2023-04-01T10:20:17.693Z,83.19
2023-04-01T10:30:59.027Z,83.56
2023-04-01T10:41:23.455Z,83.61
2023-04-01T10:52:04.851Z,82.85
2023-04-01T11:02:45.283Z,82.33
2023-04-01T11:13:13.304Z,82.91
2023-04-01T11:24:01.874Z,83.05
2023-04-01T11:34:19.149Z,82.70
2023-04-01T11:44:29.764Z,82.39
2023-04-01T11:54:42.785Z,82.85
2023-04-01T12:05:00.617Z,83.23
2023-04-01T12:15:16.196Z,83.84
2023-04-01T12:25:25.560Z,83.97
2023-04-01T12:35:35.458Z,84.07
2023-04-01T12:45:40.993Z,83.96
2023-04-01T12:55:53.834Z,84.07
2023-04-01T13:06:22.187Z,84.01
2023-04-01T13:16:30.147Z,83.92
2023-04-01T13:26:35.863Z,84.07
2023-04-01T13:36:46.052Z,84.39
2023-04-01T13:46:56.864Z,84.49
2023-04-01T13:57:07.779Z,84.45
2023-04-01T14:07:18.335Z,84.24
2023-04-01T14:17:47.618Z,84.34
2023-04-01T14:27:56.414Z,84.46
2023-04-01T14:38:29.692Z,84.39
2023-04-01T14:48:38.164Z,84.66
2023-04-01T14:58:45.531Z,84.60
2023-04-01T15:08:52.052Z,84.62
2023-04-01T15:18:59.663Z,84.78
2023-04-01T15:29:10.118Z,84.73
2023-04-01T15:39:15.815Z,84.91
2023-04-01T15:49:29.887Z,85.19
2023-04-01T15:59:48.771Z,85.32
2023-04-01T16:10:01.493Z,85.29
2023-04-01T16:20:09.147Z,85.47
2023-04-01T16:30:34.962Z,85.82
2023-04-01T16:40:43.254Z,86.36
2023-04-01T16:50:53.097Z,86.34
2023-04-01T17:01:02.883Z,86.53
2023-04-01T17:11:09.779Z,86.62
2023-04-01T17:21:16.162Z,86.83
2023-04-01T17:31:35.974Z,86.67
2023-04-01T17:41:43.558Z,86.69
2023-04-01T17:51:49.092Z,86.83
2023-04-01T18:01:57.579Z,86.86
2023-04-01T18:12:10.092Z,86.99
2023-04-01T18:22:17.684Z,86.98
2023-04-01T18:32:38.040Z,87.01
2023-04-01T18:42:45.651Z,87.12
2023-04-01T18:52:57.304Z,87.29
2023-04-01T19:03:04.834Z,87.52
2023-04-01T19:13:18.543Z,87.12
2023-04-01T19:23:40.833Z,87.39
2023-04-01T19:33:49.370Z,87.44
2023-04-01T19:44:01.214Z,87.67
2023-04-01T19:54:15.509Z,87.83
2023-04-01T20:04:29.431Z,88.00
2023-04-01T20:14:39.090Z,88.12
2023-04-01T20:24:47.793Z,88.29
2023-04-01T20:34:58.800Z,88.51
2023-04-01T20:45:17.544Z,88.73
2023-04-01T20:55:31.589Z,88.82
2023-04-01T21:05:56.821Z,89.12
2023-04-01T21:16:10.300Z,89.53
2023-04-01T21:26:35.765Z,89.68
2023-04-01T21:36:49.095Z,89.71
2023-04-01T21:47:25.145Z,89.79
2023-04-01T21:57:59.760Z,89.72
2023-04-01T22:08:05.649Z,89.83
2023-04-01T22:18:18.283Z,89.85
2023-04-01T22:28:29.727Z,89.70
2023-04-01T22:38:40.579Z,89.75
2023-04-01T22:48:48.991Z,89.71
2023-04-01T22:58:57.509Z,89.61
2023-04-01T23:09:07.355Z,89.62
2023-04-01T23:19:17.646Z,89.75
2023-04-01T23:29:27.347Z,89.80
2023-04-01T23:39:32.225Z,90.00
2023-04-01T23:49:36.349Z,90.08
2023-04-01T23:59:43.124Z,90.02
